createdAt,value
2018-07-29T00:04:30.915Z,16.56
2018-07-29T00:14:37.400Z,16.42
2018-07-29T00:24:36.298Z,16.37
2018-07-29T00:34:30.924Z,16.4
2018-07-29T00:44:30.949Z,16.62
2018-07-29T00:54:30.973Z,16.78
2018-07-29T01:04:41.264Z,16.75
2018-07-29T01:14:32.311Z,16.95
2018-07-29T01:24:31.031Z,16.98
2018-07-29T01:34:44.007Z,17.1
2018-07-29T01:44:31.036Z,17.11
2018-07-29T01:54:34.278Z,17.22
2018-07-29T02:04:31.026Z,17.18
2018-07-29T02:14:34.376Z,17.5
2018-07-29T02:24:31.063Z,17.87
2018-07-29T02:34:33.173Z,17.99
2018-07-29T02:44:31.081Z,18.09
2018-07-29T02:54:31.091Z,18.12
2018-07-29T03:04:32.136Z,18.1
2018-07-29T03:14:37.387Z,18.13
2018-07-29T03:24:37.971Z,18.13
2018-07-29T03:34:49.385Z,18.25
2018-07-29T03:44:31.106Z,18.27
2018-07-29T03:54:37.536Z,18.36
2018-07-29T04:04:31.194Z,18.4
2018-07-29T04:14:31.156Z,18.58
2018-07-29T04:24:34.243Z,18.83
2018-07-29T04:34:31.184Z,19.31
2018-07-29T04:44:31.192Z,19.6
2018-07-29T04:54:38.518Z,19.8
2018-07-29T05:04:34.414Z,19.87
2018-07-29T05:14:33.264Z,19.98
2018-07-29T05:24:32.191Z,20.13
2018-07-29T05:34:33.294Z,20.25
2018-07-29T05:44:31.160Z,20.47
2018-07-29T05:54:31.173Z,20.56
2018-07-29T06:04:31.167Z,20.74
2018-07-29T06:14:31.177Z,21.09
2018-07-29T06:24:31.169Z,21.51
2018-07-29T06:34:31.193Z,21.98
2018-07-29T06:44:31.168Z,22.39
2018-07-29T06:54:31.185Z,27.04
2018-07-29T07:04:31.169Z,29.59
2018-07-29T07:14:31.204Z,31.95
2018-07-29T07:24:31.198Z,34.41
2018-07-29T07:34:31.222Z,36.24
2018-07-29T07:44:31.241Z,35.13
2018-07-29T07:54:31.215Z,37.99
2018-07-29T08:04:31.267Z,39.43
2018-07-29T08:14:31.219Z,40.45
2018-07-29T08:24:31.188Z,38.82
2018-07-29T08:34:31.220Z,38.98
2018-07-29T08:44:31.242Z,36.38
2018-07-29T08:54:31.247Z,35.18
2018-07-29T09:04:31.209Z,35.14
2018-07-29T09:14:31.213Z,32.93
2018-07-29T09:24:31.221Z,31.82
2018-07-29T09:34:31.262Z,30.81
2018-07-29T09:44:31.211Z,30.67
2018-07-29T09:54:31.282Z,30.74
2018-07-29T10:04:31.270Z,31.12
2018-07-29T10:14:31.286Z,31.08
2018-07-29T10:24:31.394Z,30.74
2018-07-29T10:34:31.761Z,30.98
2018-07-29T10:44:31.262Z,30.96
2018-07-29T10:54:31.265Z,31.13
2018-07-29T11:04:31.265Z,31.45
2018-07-29T11:14:31.263Z,31.36
2018-07-29T11:24:31.294Z,31.01
2018-07-29T11:34:31.301Z,31.8
2018-07-29T11:44:31.326Z,32.03
2018-07-29T11:54:31.267Z,32.81
2018-07-29T12:04:31.304Z,31.99
2018-07-29T12:14:31.294Z,32.39
2018-07-29T12:24:31.304Z,32.14
2018-07-29T12:34:31.327Z,31.92
2018-07-29T12:44:31.301Z,31.15
2018-07-29T12:54:31.375Z,31.82
2018-07-29T13:04:31.286Z,31.92
2018-07-29T13:14:31.300Z,31.23
2018-07-29T13:24:31.322Z,30.47
2018-07-29T13:34:31.304Z,30.54
2018-07-29T13:44:31.511Z,30.69
2018-07-29T13:54:31.290Z,30.71
2018-07-29T14:04:31.312Z,30.52
2018-07-29T14:14:31.321Z,30
2018-07-29T14:24:31.327Z,30.14
2018-07-29T14:34:31.428Z,30.94
2018-07-29T14:44:31.371Z,31.33
2018-07-29T14:54:31.324Z,31.2
2018-07-29T15:04:31.322Z,30.49
2018-07-29T15:14:31.431Z,30.68
2018-07-29T15:24:31.310Z,30.99
2018-07-29T15:34:31.380Z,30.91
2018-07-29T15:44:45.279Z,30.59
2018-07-29T15:54:32.963Z,30.56
2018-07-29T16:04:36.664Z,30.02
2018-07-29T16:14:31.359Z,30.09
2018-07-29T16:24:32.420Z,30.57
2018-07-29T16:34:32.636Z,31.17
2018-07-29T16:44:31.517Z,31.09
2018-07-29T16:54:34.284Z,31.33
2018-07-29T17:04:31.578Z,31.43
2018-07-29T17:14:31.443Z,31.05
2018-07-29T17:24:31.686Z,30.54
2018-07-29T17:34:31.998Z,29.92
2018-07-29T17:44:31.637Z,29.59
2018-07-29T17:54:48.483Z,29.4
2018-07-29T18:04:35.239Z,29.38
2018-07-29T18:14:31.372Z,29.38
2018-07-29T18:24:46.785Z,29.08
2018-07-29T18:34:33.494Z,28.75
2018-07-29T18:54:31.420Z,27.74
2018-07-29T19:04:31.409Z,27.17
2018-07-29T19:14:32.494Z,26.64
2018-07-29T19:24:38.889Z,26.43
2018-07-29T19:34:31.624Z,26.24
2018-07-29T19:44:31.438Z,26.22
2018-07-29T19:54:31.445Z,26.21
2018-07-29T20:04:31.721Z,26.01
2018-07-29T20:14:32.545Z,25.9
2018-07-29T20:24:31.523Z,25.37
2018-07-29T20:34:31.446Z,25.22
2018-07-29T20:44:32.036Z,24.97
2018-07-29T20:54:34.488Z,24.76
2018-07-29T21:04:47.739Z,24.79
2018-07-29T21:24:31.446Z,24.07
2018-07-29T21:34:31.562Z,23.89
2018-07-29T21:44:31.467Z,24.02
2018-07-29T21:54:31.460Z,24.59
2018-07-29T22:04:31.500Z,24.56
2018-07-29T22:14:31.442Z,24.5
2018-07-29T22:24:31.447Z,24.44
2018-07-29T22:34:31.441Z,24.35
2018-07-29T22:44:31.520Z,24.16
2018-07-29T22:54:31.805Z,24.1
2018-07-29T23:04:31.452Z,24.07
2018-07-29T23:14:31.467Z,24.01
2018-07-29T23:24:31.450Z,23.85
2018-07-29T23:34:31.458Z,23.57
2018-07-29T23:44:31.492Z,23.42
2018-07-29T23:54:31.519Z,23.24
